Time;durP1;ratioP1;P1;durP2;ratioP2;P2;SDS_P1;SDS_P2;PMS_P1;PMS_P2;Temp;Humidity;BMP_temperature;BMP_pressure;BME280_temperature;BME280_humidity;BME280_pressure;Samples;Min_cycle;Max_cycle;Signal;HPM_P1;HPM_P2
2023/01/23 00:01:51;;;;;;;13.83;12.47;;;;;;;2.48;96.10;102302.50;5092577;28;20196;-81
2023/01/23 00:04:17;;;;;;;18.03;12.77;;;;;;;2.49;96.78;102294.84;5093274;28;20250;-80
2023/01/23 00:06:44;;;;;;;16.00;13.40;;;;;;;2.50;96.69;102303.50;5093687;28;20258;-80
2023/01/23 00:09:11;;;;;;;15.37;13.40;;;;;;;2.51;96.49;102295.81;5093579;28;20253;-80
2023/01/23 00:11:38;;;;;;;18.30;12.90;;;;;;;2.53;96.32;102303.63;5091639;28;20207;-80
2023/01/23 00:14:04;;;;;;;14.63;13.13;;;;;;;2.51;96.75;102300.97;5081479;28;20202;-80
2023/01/23 00:16:32;;;;;;;16.30;13.50;;;;;;;2.53;96.74;102306.19;5090285;28;20200;-80
2023/01/23 00:18:59;;;;;;;14.33;12.73;;;;;;;2.49;96.67;102300.00;5075380;28;20606;-81
2023/01/23 00:21:27;;;;;;;17.47;12.30;;;;;;;2.52;96.84;102304.44;5072564;28;20266;-80
2023/01/23 00:23:56;;;;;;;20.90;12.57;;;;;;;2.51;96.64;102302.66;5073039;28;20240;-80
2023/01/23 00:26:25;;;;;;;15.27;12.23;;;;;;;2.52;96.60;102307.91;5073032;28;20201;-80
2023/01/23 00:28:52;;;;;;;14.17;12.63;;;;;;;2.52;96.75;102301.88;5072826;28;20434;-80
2023/01/23 00:31:21;;;;;;;15.50;12.90;;;;;;;2.49;96.00;102302.59;5078815;28;20201;-81
2023/01/23 00:33:47;;;;;;;16.20;14.03;;;;;;;2.47;96.40;102296.47;5084381;28;20663;-81
2023/01/23 00:36:14;;;;;;;15.20;13.23;;;;;;;2.45;96.50;102295.53;5092936;28;20592;-81
2023/01/23 00:38:41;;;;;;;15.97;13.37;;;;;;;2.46;96.47;102297.31;5093204;28;20224;-80
2023/01/23 00:41:08;;;;;;;16.03;12.23;;;;;;;2.45;96.70;102294.66;5092096;28;20698;-81
2023/01/23 00:43:35;;;;;;;18.93;13.03;;;;;;;2.47;96.81;102293.03;5092753;28;20204;-81
2023/01/23 00:46:02;;;;;;;16.20;12.80;;;;;;;2.44;96.86;102290.31;5093508;28;20276;-81
2023/01/23 00:48:28;;;;;;;18.07;12.90;;;;;;;2.44;96.74;102285.16;5086850;28;20299;-80
2023/01/23 00:50:54;;;;;;;15.20;12.57;;;;;;;2.44;97.00;102287.72;5083884;28;20258;-80
2023/01/23 00:53:21;;;;;;;17.77;13.93;;;;;;;2.44;97.31;102283.47;5092686;28;20270;-80
2023/01/23 00:55:48;;;;;;;16.83;13.63;;;;;;;2.45;97.16;102290.38;5092716;28;20235;-80
2023/01/23 00:58:14;;;;;;;16.23;12.63;;;;;;;2.45;97.00;102285.22;5092962;28;20302;-80
2023/01/23 01:00:42;;;;;;;17.87;13.30;;;;;;;2.48;97.17;102287.97;5092255;28;20204;-81
2023/01/23 01:03:09;;;;;;;14.07;12.37;;;;;;;2.47;96.62;102286.19;5092753;28;20208;-80
2023/01/23 01:05:35;;;;;;;18.97;13.47;;;;;;;2.45;97.11;102289.50;5087650;28;20201;-81
2023/01/23 01:08:02;;;;;;;13.73;12.23;;;;;;;2.42;97.26;102295.41;5079673;28;20220;-80
2023/01/23 01:10:29;;;;;;;14.23;11.90;;;;;;;2.46;97.06;102292.16;5071819;28;20206;-81
2023/01/23 01:12:55;;;;;;;16.27;12.70;;;;;;;2.47;97.23;102296.47;5075868;28;20555;-80
2023/01/23 01:15:22;;;;;;;14.23;12.73;;;;;;;2.50;97.08;102304.38;5084008;28;20201;-80
2023/01/23 01:17:52;;;;;;;17.47;12.60;;;;;;;2.50;96.59;102313.81;5092500;28;20249;-79
2023/01/23 01:20:18;;;;;;;14.57;13.00;;;;;;;2.49;96.97;102307.75;5092543;28;20295;-81
2023/01/23 01:22:45;;;;;;;14.70;11.90;;;;;;;2.49;96.95;102312.91;5092656;28;20208;-81
2023/01/23 01:25:11;;;;;;;15.00;12.40;;;;;;;2.49;96.91;102320.63;5092588;28;20204;-80
2023/01/23 01:27:38;;;;;;;21.03;13.63;;;;;;;2.44;96.64;102317.00;5092254;28;20242;-81
2023/01/23 01:30:05;;;;;;;16.17;14.00;;;;;;;2.45;97.27;102316.16;5091708;28;20236;-80
2023/01/23 01:32:31;;;;;;;16.77;12.33;;;;;;;2.49;97.08;102324.91;5092655;28;20204;-81
2023/01/23 01:34:59;;;;;;;14.93;12.60;;;;;;;2.47;97.32;102311.94;5092685;28;20249;-80
2023/01/23 01:37:25;;;;;;;12.13;10.93;;;;;;;2.52;96.96;102328.50;5092575;28;20739;-80
2023/01/23 01:39:51;;;;;;;15.43;13.10;;;;;;;2.48;96.93;102329.19;5092097;28;20235;-80
2023/01/23 01:42:18;;;;;;;15.50;12.83;;;;;;;2.48;96.95;102333.44;5085631;28;20238;-80
2023/01/23 01:44:55;;;;;;;13.87;12.33;;;;;;;2.45;97.17;102329.03;5082865;28;20624;-80
2023/01/23 01:47:21;;;;;;;13.50;12.13;;;;;;;2.49;97.12;102332.66;5092501;28;20246;-79
2023/01/23 01:49:50;;;;;;;16.27;12.70;;;;;;;2.48;97.04;102342.09;5091804;28;20633;-80
2023/01/23 01:52:19;;;;;;;19.07;12.87;;;;;;;2.48;96.63;102342.09;5092319;28;20208;-81
2023/01/23 01:54:50;;;;;;;15.53;13.23;;;;;;;2.52;96.37;102337.94;5094732;28;20196;-80
2023/01/23 01:57:20;;;;;;;15.37;13.77;;;;;;;2.51;96.47;102346.47;5096556;28;21019;-80
2023/01/23 01:59:51;;;;;;;16.90;13.63;;;;;;;2.52;96.45;102340.53;5096592;28;20227;-80
2023/01/23 02:02:23;;;;;;;14.33;12.67;;;;;;;2.52;96.47;102351.72;5096375;28;20253;-81
2023/01/23 02:04:56;;;;;;;19.77;13.97;;;;;;;2.51;96.36;102359.38;5096716;28;20246;-80
2023/01/23 02:07:29;;;;;;;19.80;14.23;;;;;;;2.52;96.36;102361.16;5096313;28;20228;-81
2023/01/23 02:09:56;;;;;;;21.97;14.07;;;;;;;2.51;96.77;102362.81;5096071;28;20254;-80
2023/01/23 02:12:25;;;;;;;15.00;13.20;;;;;;;2.52;96.21;102368.88;5089162;28;20234;-80
2023/01/23 02:14:52;;;;;;;18.50;13.17;;;;;;;2.52;96.57;102362.03;5087826;28;20228;-81
2023/01/23 02:17:19;;;;;;;18.60;13.50;;;;;;;2.51;96.36;102359.38;5096619;28;20204;-81
2023/01/23 02:19:53;;;;;;;19.67;14.07;;;;;;;2.51;96.79;102367.97;5096027;28;20281;-79
2023/01/23 02:22:32;;;;;;;19.57;13.90;;;;;;;2.47;97.01;102363.50;5096499;28;20257;-81
2023/01/23 02:25:06;;;;;;;16.87;13.53;;;;;;;2.48;97.09;102360.13;5096365;28;20265;-81
2023/01/23 02:27:33;;;;;;;19.30;13.27;;;;;;;2.49;96.51;102363.56;5095924;28;20642;-81
2023/01/23 02:30:00;;;;;;;16.20;13.13;;;;;;;2.50;96.85;102366.22;5095492;28;20240;-81
2023/01/23 02:32:26;;;;;;;18.73;13.07;;;;;;;2.51;96.79;102373.13;5096628;28;20208;-83
2023/01/23 02:34:56;;;;;;;19.50;14.33;;;;;;;2.50;97.01;102373.09;5099408;28;20212;-83
2023/01/23 02:37:28;;;;;;;18.83;12.87;;;;;;;2.51;96.61;102372.25;5099072;28;20316;-83
2023/01/23 02:39:55;;;;;;;18.20;13.57;;;;;;;2.47;96.78;102363.50;5098968;28;20225;-83
2023/01/23 02:42:23;;;;;;;17.57;13.83;;;;;;;2.50;97.15;102365.34;5096552;28;20693;-82
2023/01/23 02:44:52;;;;;;;15.63;13.53;;;;;;;2.47;97.04;102365.19;5081275;22;20756;-81
2023/01/23 02:47:19;;;;;;;18.23;14.03;;;;;;;2.52;97.42;102358.56;5059585;28;20225;-85
2023/01/23 02:49:45;;;;;;;16.73;13.10;;;;;;;2.53;97.01;102368.06;5059063;28;20201;-80
2023/01/23 02:52:11;;;;;;;23.37;14.07;;;;;;;2.46;97.59;102373.72;5058419;28;20221;-80
2023/01/23 02:54:39;;;;;;;20.43;13.93;;;;;;;2.48;97.78;102359.22;5059263;28;20221;-83
2023/01/23 02:57:05;;;;;;;23.00;14.40;;;;;;;2.50;97.48;102355.03;5059141;28;20235;-83
2023/01/23 03:02:17;;;;;;;19.63;13.57;;;;;;;2.50;97.90;102355.03;5058603;28;20294;-84
2023/01/23 03:04:43;;;;;;;22.43;14.10;;;;;;;2.50;97.98;102357.63;5058769;28;20229;-82
2023/01/23 03:07:09;;;;;;;22.03;15.00;;;;;;;2.54;97.57;102362.09;5058810;28;20206;-84
2023/01/23 03:09:36;;;;;;;24.50;14.27;;;;;;;2.52;97.39;102363.72;5055531;28;20201;-82
2023/01/23 03:12:03;;;;;;;18.90;14.17;;;;;;;2.46;98.39;102355.69;5053804;28;20210;-83
2023/01/23 03:14:31;;;;;;;22.67;13.90;;;;;;;2.46;98.22;102348.88;5055006;28;20228;-81
2023/01/23 03:16:57;;;;;;;25.10;14.70;;;;;;;2.45;98.55;102353.94;5055137;28;20207;-82
2023/01/23 03:19:26;;;;;;;23.53;13.97;;;;;;;2.47;98.49;102350.59;5055059;28;20198;-82
2023/01/23 03:21:53;;;;;;;25.10;13.63;;;;;;;2.46;98.72;102348.88;5054676;28;20237;-84
2023/01/23 03:24:20;;;;;;;22.03;14.27;;;;;;;2.50;98.48;102344.75;5055063;28;20225;-81
2023/01/23 03:26:48;;;;;;;24.10;14.47;;;;;;;2.47;98.17;102345.47;5055017;28;20206;-81
2023/01/23 03:32:01;;;;;;;18.33;13.03;;;;;;;2.48;98.46;102348.91;5054378;28;20212;-80
2023/01/23 03:34:29;;;;;;;24.33;14.33;;;;;;;2.47;98.31;102342.88;5055060;28;20280;-84
2023/01/23 03:36:56;;;;;;;24.93;14.03;;;;;;;2.45;98.58;102343.63;5055873;28;20232;-83
2023/01/23 03:42:06;;;;;;;25.10;15.13;;;;;;;2.45;98.90;102336.78;5054215;28;20216;-84
2023/01/23 03:44:32;;;;;;;26.87;12.97;;;;;;;2.48;98.95;102338.59;5055265;28;20226;-80
2023/01/23 03:46:59;;;;;;;27.07;15.00;;;;;;;2.49;98.77;102343.81;5056596;28;20205;-82
2023/01/23 03:49:25;;;;;;;23.00;13.93;;;;;;;2.50;99.10;102340.47;5055323;28;20717;-81
2023/01/23 03:51:53;;;;;;;27.03;15.27;;;;;;;2.49;98.83;102348.97;5055361;28;20699;-82
2023/01/23 03:54:19;;;;;;;29.30;14.90;;;;;;;2.49;98.29;102345.53;5050418;28;20708;-82
2023/01/23 03:56:46;;;;;;;27.27;14.70;;;;;;;2.50;98.31;102352.47;5055399;28;20205;-84
2023/01/23 03:59:12;;;;;;;31.03;14.83;;;;;;;2.50;98.70;102349.91;5056171;28;20255;-81
2023/01/23 04:01:38;;;;;;;31.23;14.87;;;;;;;2.46;98.37;102350.53;5055264;28;20210;-83
2023/01/23 04:04:05;;;;;;;21.50;13.77;;;;;;;2.47;98.82;102347.16;5055376;28;20229;-81
2023/01/23 04:06:32;;;;;;;27.33;15.40;;;;;;;2.45;98.24;102349.66;5055853;28;20210;-83
2023/01/23 04:09:00;;;;;;;27.30;15.67;;;;;;;2.42;98.93;102351.22;5050494;28;20222;-83
2023/01/23 04:11:27;;;;;;;25.53;15.17;;;;;;;2.43;98.41;102348.72;5051339;28;20754;-81
2023/01/23 04:13:53;;;;;;;25.97;14.90;;;;;;;2.43;98.51;102351.28;5055836;28;20282;-82
2023/01/23 04:16:21;;;;;;;24.67;14.93;;;;;;;2.41;99.17;102350.34;5055714;28;20228;-85
2023/01/23 04:18:48;;;;;;;23.00;13.47;;;;;;;2.43;98.61;102355.56;5055109;28;20234;-81
2023/01/23 04:21:14;;;;;;;22.90;14.07;;;;;;;2.46;98.77;102359.16;5055467;28;20622;-84
2023/01/23 04:23:40;;;;;;;24.30;15.00;;;;;;;2.47;98.60;102362.63;5055190;28;20232;-84
2023/01/23 04:26:08;;;;;;;26.43;14.67;;;;;;;2.42;98.09;102359.84;5055429;28;20209;-82
2023/01/23 04:28:34;;;;;;;24.47;14.83;;;;;;;2.39;98.68;102367.44;5055321;28;20222;-82
2023/01/23 04:31:01;;;;;;;25.83;14.27;;;;;;;2.40;98.22;102364.06;5054711;28;20747;-81
2023/01/23 04:33:27;;;;;;;21.07;13.77;;;;;;;2.41;98.48;102364.94;5055535;28;20264;-80
2023/01/23 04:35:56;;;;;;;22.50;14.70;;;;;;;2.39;98.22;102370.88;5055410;28;20213;-84
2023/01/23 04:38:22;;;;;;;25.23;14.70;;;;;;;2.42;98.29;102377.88;5052883;28;20287;-82
2023/01/23 04:40:50;;;;;;;23.37;13.87;;;;;;;2.41;98.25;102377.81;5055001;28;20199;-80
2023/01/23 04:43:18;;;;;;;19.60;12.90;;;;;;;2.44;97.68;102384.00;5055217;28;20214;-82
2023/01/23 04:45:44;;;;;;;25.00;14.17;;;;;;;2.47;97.84;102390.97;5054996;28;20244;-81
2023/01/23 04:48:11;;;;;;;23.80;15.33;;;;;;;2.47;97.83;102399.59;5055172;28;20719;-83
2023/01/23 04:50:38;;;;;;;24.77;15.27;;;;;;;2.51;97.68;102408.34;5051823;28;20267;-82
2023/01/23 04:53:05;;;;;;;28.07;15.17;;;;;;;2.46;97.52;102400.41;5054243;28;20205;-80
2023/01/23 04:55:32;;;;;;;22.30;15.30;;;;;;;2.45;97.84;102408.06;5054637;28;20226;-83
2023/01/23 04:57:59;;;;;;;25.60;14.80;;;;;;;2.45;97.59;102395.19;5055003;28;20670;-83
2023/01/23 05:00:28;;;;;;;20.23;13.33;;;;;;;2.46;97.75;102395.25;5053883;28;20672;-83
2023/01/23 05:02:55;;;;;;;24.27;14.00;;;;;;;2.45;97.96;102393.47;5054889;28;20206;-82
2023/01/23 05:05:22;;;;;;;23.47;14.07;;;;;;;2.45;97.74;102393.47;5054641;28;20602;-83
2023/01/23 05:07:49;;;;;;;26.07;14.57;;;;;;;2.41;97.89;102389.00;5054429;28;20617;-84
2023/01/23 05:10:16;;;;;;;24.87;14.80;;;;;;;2.48;97.62;102408.19;5054304;28;20697;-84
2023/01/23 05:12:43;;;;;;;29.33;14.40;;;;;;;2.45;97.29;102406.38;5054565;28;20641;-84
2023/01/23 05:15:10;;;;;;;24.23;15.27;;;;;;;2.43;97.30;102407.13;5054819;28;20296;-83
2023/01/23 05:17:38;;;;;;;22.10;14.30;;;;;;;2.46;97.47;102412.41;5055014;28;20676;-83
2023/01/23 05:20:06;;;;;;;18.83;13.70;;;;;;;2.41;97.53;102414.78;5052460;28;20598;-82
2023/01/23 05:22:32;;;;;;;21.73;13.80;;;;;;;2.45;96.70;102406.38;5054037;28;20201;-83
2023/01/23 05:24:58;;;;;;;18.40;14.27;;;;;;;2.43;97.18;102410.56;5054283;28;20231;-85
2023/01/23 05:27:25;;;;;;;18.30;13.47;;;;;;;2.39;96.96;102419.84;5047807;28;20210;-82
2023/01/23 05:29:51;;;;;;;20.03;12.90;;;;;;;2.44;96.63;102432.97;5053389;28;20270;-83
2023/01/23 05:32:17;;;;;;;15.50;12.57;;;;;;;2.43;96.34;102440.63;5056387;28;20201;-85
2023/01/23 05:34:45;;;;;;;16.90;13.20;;;;;;;2.43;96.71;102443.19;5054942;28;20262;-82
2023/01/23 05:37:11;;;;;;;18.97;13.23;;;;;;;2.34;96.40;102438.50;5054656;28;20205;-81
2023/01/23 05:39:38;;;;;;;20.90;13.70;;;;;;;2.28;97.48;102433.03;5054267;28;20205;-84
2023/01/23 05:42:04;;;;;;;17.43;12.53;;;;;;;2.33;97.05;102422.13;5053820;28;20206;-83
2023/01/23 05:44:31;;;;;;;20.53;13.80;;;;;;;2.33;96.95;102422.13;5054234;28;20275;-83
2023/01/23 05:46:57;;;;;;;19.47;14.80;;;;;;;2.36;96.76;102426.56;5054355;28;20202;-84
2023/01/23 05:49:24;;;;;;;18.90;14.30;;;;;;;2.35;96.63;102435.97;5055053;28;20251;-84
2023/01/23 05:51:51;;;;;;;19.03;13.20;;;;;;;2.35;96.71;102438.56;5053517;28;20217;-83
2023/01/23 05:54:18;;;;;;;20.47;13.10;;;;;;;2.38;96.43;102445.56;5053623;28;20645;-83
2023/01/23 05:56:44;;;;;;;18.63;13.03;;;;;;;2.35;96.41;102450.56;5054204;28;20619;-82
2023/01/23 05:59:10;;;;;;;13.97;11.27;;;;;;;2.33;96.98;102450.50;5052998;28;20682;-82
2023/01/23 06:01:37;;;;;;;18.63;13.07;;;;;;;2.26;97.07;102444.97;5052898;28;20251;-83
2023/01/23 06:04:03;;;;;;;16.97;13.20;;;;;;;2.25;96.83;102446.66;5054085;28;20231;-82
2023/01/23 06:06:29;;;;;;;17.53;13.07;;;;;;;2.30;97.21;102442.63;5053904;28;20684;-84
2023/01/23 06:08:58;;;;;;;19.83;13.87;;;;;;;2.34;96.94;102451.41;5054209;28;20284;-84
2023/01/23 06:11:24;;;;;;;16.07;12.93;;;;;;;2.39;96.42;102460.22;5053517;28;20201;-81
2023/01/23 06:13:51;;;;;;;20.00;14.40;;;;;;;2.37;96.22;102475.59;5054149;28;20275;-83
2023/01/23 06:16:17;;;;;;;17.23;13.83;;;;;;;2.34;96.40;102477.16;5053786;28;20205;-82
2023/01/23 06:18:43;;;;;;;19.50;13.30;;;;;;;2.31;96.27;102480.44;5054211;28;20259;-83
2023/01/23 06:21:10;;;;;;;17.90;13.43;;;;;;;2.30;96.85;102485.53;5051229;28;20201;-82
2023/01/23 06:23:36;;;;;;;16.30;13.60;;;;;;;2.30;96.63;102481.28;5053758;28;20227;-83
2023/01/23 06:26:04;;;;;;;15.40;13.30;;;;;;;2.29;96.62;102476.91;5054353;28;20205;-84
2023/01/23 06:28:31;;;;;;;17.40;13.20;;;;;;;2.35;96.73;102477.22;5054445;28;20222;-82
2023/01/23 06:31:00;;;;;;;19.40;14.57;;;;;;;2.37;96.34;102482.44;5054347;28;20255;-84
2023/01/23 06:33:26;;;;;;;16.53;13.50;;;;;;;2.39;96.41;102493.72;5054660;28;20213;-83
2023/01/23 06:35:57;;;;;;;19.30;14.50;;;;;;;2.39;96.16;102499.75;5055546;28;20236;-84
2023/01/23 06:38:24;;;;;;;20.80;12.80;;;;;;;2.41;96.17;102499.81;5054944;28;20269;-83
2023/01/23 06:40:50;;;;;;;17.10;13.20;;;;;;;2.43;95.50;102505.06;5056535;28;20205;-83
2023/01/23 06:43:17;;;;;;;18.97;14.20;;;;;;;2.44;96.01;102509.38;5058403;28;20207;-82
2023/01/23 06:45:44;;;;;;;18.87;13.30;;;;;;;2.42;96.08;102511.91;5058404;28;20213;-83
2023/01/23 06:48:10;;;;;;;23.43;15.83;;;;;;;2.41;96.37;102515.28;5058527;28;20207;-81
2023/01/23 06:50:38;;;;;;;25.27;15.20;;;;;;;2.43;96.10;102516.25;5048504;28;20251;-81
2023/01/23 06:53:05;;;;;;;25.67;17.07;;;;;;;2.43;95.96;102523.97;5057718;28;20209;-81
2023/01/23 06:55:31;;;;;;;25.20;15.97;;;;;;;2.42;96.21;102516.16;5057723;28;20232;-84
2023/01/23 06:57:57;;;;;;;25.17;15.17;;;;;;;2.40;96.36;102516.09;5054877;28;20222;-83
2023/01/23 07:00:26;;;;;;;21.90;15.13;;;;;;;2.35;96.52;102510.72;5056899;28;20231;-83
2023/01/23 07:02:57;;;;;;;20.80;15.23;;;;;;;2.35;96.66;102513.28;5057468;28;20283;-79
2023/01/23 07:05:24;;;;;;;27.40;16.50;;;;;;;2.35;96.98;102518.44;5041360;28;20234;-80
2023/01/23 07:07:51;;;;;;;25.57;16.67;;;;;;;2.37;97.03;102519.41;5054690;28;20202;-81
2023/01/23 07:10:17;;;;;;;22.57;14.73;;;;;;;2.35;97.07;102515.88;5057304;28;20226;-80
2023/01/23 07:12:44;;;;;;;20.93;15.60;;;;;;;2.34;97.08;102513.25;5057123;28;20210;-79
2023/01/23 07:15:11;;;;;;;23.40;15.73;;;;;;;2.35;97.72;102512.41;5057329;28;20298;-81
2023/01/23 07:17:38;;;;;;;23.47;14.27;;;;;;;2.39;97.08;102519.47;5057726;28;20652;-81
2023/01/23 07:20:06;;;;;;;22.83;15.60;;;;;;;2.39;97.16;102525.50;5049515;28;20200;-81
2023/01/23 07:22:32;;;;;;;24.57;15.67;;;;;;;2.42;97.40;102529.94;5058269;28;20197;-80
2023/01/23 07:24:58;;;;;;;26.77;16.70;;;;;;;2.43;97.54;102530.81;5057116;28;20225;-80
2023/01/23 07:27:25;;;;;;;27.73;16.23;;;;;;;2.40;97.14;102541.88;5057330;28;20735;-82
2023/01/23 07:29:51;;;;;;;27.73;16.90;;;;;;;2.46;96.92;102544.75;5055658;28;20736;-79
2023/01/23 07:32:17;;;;;;;27.73;15.50;;;;;;;2.49;97.02;102547.47;5057529;28;20201;-81
2023/01/23 07:34:45;;;;;;;25.00;15.90;;;;;;;2.55;96.23;102557.19;5058926;28;20251;-79
2023/01/23 07:37:11;;;;;;;31.37;16.23;;;;;;;2.56;96.57;102572.75;5057076;28;20201;-82
2023/01/23 07:39:37;;;;;;;24.67;16.20;;;;;;;2.51;96.40;102574.19;5052355;28;20245;-81
2023/01/23 07:42:04;;;;;;;26.63;16.93;;;;;;;2.55;96.13;102588.13;5055036;28;20203;-81
2023/01/23 07:44:30;;;;;;;32.83;18.13;;;;;;;2.54;95.69;102588.94;5056875;28;20279;-81
2023/01/23 07:46:57;;;;;;;29.53;16.40;;;;;;;2.42;96.59;102589.22;5056699;28;20679;-80
2023/01/23 07:49:23;;;;;;;28.20;16.53;;;;;;;2.43;97.16;102582.38;5058113;28;20225;-82
2023/01/23 07:51:51;;;;;;;33.17;17.67;;;;;;;2.49;96.58;102580.97;5055453;28;20578;-83
2023/01/23 07:54:17;;;;;;;32.75;21.20;;;;;;;2.56;96.79;102583.06;5056547;28;20461;-83
2023/01/23 07:56:44;;;;;;;35.42;24.08;;;;;;;2.68;96.99;102580.19;5055784;28;21002;-81
2023/01/23 07:59:11;;;;;;;32.93;18.73;;;;;;;2.71;96.07;102590.63;5056816;28;20252;-82
2023/01/23 08:01:37;;;;;;;36.67;18.40;;;;;;;2.70;95.53;102600.88;5056826;28;20205;-79
2023/01/23 08:04:04;;;;;;;38.07;18.10;;;;;;;2.65;95.47;102610.97;5049112;28;20256;-80
2023/01/23 08:06:30;;;;;;;33.63;17.77;;;;;;;2.67;95.00;102626.50;5038708;28;20626;-82
2023/01/23 08:08:58;;;;;;;31.20;17.70;;;;;;;2.62;94.60;102638.28;5035684;28;20646;-82
2023/01/23 08:11:25;;;;;;;26.87;16.50;;;;;;;2.53;94.86;102637.03;5037031;28;20253;-82
2023/01/23 08:13:52;;;;;;;21.87;16.30;;;;;;;2.51;95.28;102640.34;5034430;28;20277;-81
2023/01/23 08:16:18;;;;;;;25.03;16.73;;;;;;;2.46;95.35;102629.81;5036498;28;20253;-81
2023/01/23 08:18:45;;;;;;;23.13;15.60;;;;;;;2.43;95.45;102626.19;5035736;28;20200;-80
2023/01/23 08:21:11;;;;;;;30.03;17.80;;;;;;;2.42;96.19;102616.66;5036968;28;20233;-80
2023/01/23 08:23:39;;;;;;;30.37;16.67;;;;;;;2.41;96.29;102623.53;5035804;28;20223;-81
2023/01/23 08:26:09;;;;;;;30.93;17.03;;;;;;;2.39;96.08;102607.09;5034457;28;20194;-81
2023/01/23 08:28:36;;;;;;;28.37;17.23;;;;;;;2.37;96.19;102598.41;5033929;28;20204;-82
2023/01/23 08:31:03;;;;;;;26.97;17.27;;;;;;;2.42;96.58;102593.47;5033316;28;20222;-80
2023/01/23 08:33:29;;;;;;;23.53;17.00;;;;;;;2.45;96.86;102598.78;5037950;28;20202;-81
2023/01/23 08:35:57;;;;;;;28.73;16.70;;;;;;;2.44;96.82;102591.84;5039808;28;20715;-80
2023/01/23 08:38:24;;;;;;;34.47;19.63;;;;;;;2.46;96.55;102595.41;5035509;28;20202;-79
2023/01/23 08:40:52;;;;;;;30.47;18.30;;;;;;;2.47;96.48;102584.28;5036355;28;20195;-79
2023/01/23 08:43:21;;;;;;;24.50;16.23;;;;;;;2.47;97.22;102576.56;5035452;28;20619;-81
2023/01/23 08:45:50;;;;;;;28.63;17.33;;;;;;;2.46;96.45;102583.41;5034387;28;20202;-81
2023/01/23 08:48:16;;;;;;;37.33;21.23;;;;;;;2.41;97.06;102582.28;5035281;28;20198;-83
2023/01/23 08:50:43;;;;;;;26.63;17.23;;;;;;;2.47;96.75;102590.31;5031718;28;20245;-79
2023/01/23 08:53:10;;;;;;;25.27;16.73;;;;;;;2.48;96.68;102593.78;5035411;28;20199;-80
2023/01/23 08:55:37;;;;;;;33.10;18.90;;;;;;;2.45;96.49;102591.06;5034694;28;20214;-79
2023/01/23 08:58:04;;;;;;;28.93;20.23;;;;;;;2.49;96.71;102598.13;5033018;28;20282;-80
2023/01/23 09:00:32;;;;;;;37.07;20.50;;;;;;;2.43;96.81;102600.41;5034732;28;20202;-80
2023/01/23 09:02:59;;;;;;;30.13;19.63;;;;;;;2.44;96.92;102597.91;5035968;28;20873;-80
2023/01/23 09:05:25;;;;;;;38.37;19.60;;;;;;;2.43;97.09;102603.88;5038247;28;20255;-80
2023/01/23 09:07:52;;;;;;;28.73;18.90;;;;;;;2.49;97.26;102600.72;5036135;28;20249;-79
2023/01/23 09:10:18;;;;;;;23.67;16.63;;;;;;;2.51;97.45;102601.69;5032608;28;20238;-79
2023/01/23 09:12:44;;;;;;;24.70;16.73;;;;;;;2.52;97.01;102601.75;5035452;28;20272;-80
2023/01/23 09:15:11;;;;;;;26.23;16.73;;;;;;;2.58;96.62;102606.34;5035252;28;20245;-80
2023/01/23 09:17:39;;;;;;;25.77;17.57;;;;;;;2.59;96.49;102615.81;5034731;28;20582;-81
2023/01/23 09:20:06;;;;;;;22.50;17.50;;;;;;;2.59;96.70;102628.72;5033283;28;20207;-80
2023/01/23 09:22:33;;;;;;;23.57;16.60;;;;;;;2.64;96.29;102628.97;5036368;28;20198;-81
2023/01/23 09:24:59;;;;;;;20.10;16.67;;;;;;;2.66;95.75;102635.94;5034627;28;20714;-84
2023/01/23 09:27:26;;;;;;;19.53;16.07;;;;;;;2.68;95.46;102649.78;5034859;28;20268;-81
2023/01/23 09:29:52;;;;;;;21.47;15.80;;;;;;;2.65;95.68;102653.91;5032464;28;20219;-82
2023/01/23 09:32:18;;;;;;;24.60;17.37;;;;;;;2.68;95.22;102670.44;5035357;28;20225;-83
2023/01/23 09:34:47;;;;;;;20.83;16.77;;;;;;;2.69;95.11;102676.47;5034648;28;20268;-80
2023/01/23 09:37:14;;;;;;;20.20;16.80;;;;;;;2.69;95.23;102695.38;5035681;28;20261;-79
2023/01/23 09:39:42;;;;;;;17.73;15.83;;;;;;;2.67;94.63;102697.00;5040030;28;20194;-78
2023/01/23 09:42:17;;;;;;;18.83;15.90;;;;;;;2.65;94.61;102700.31;5033910;28;20229;-79
2023/01/23 09:44:48;;;;;;;20.73;15.57;;;;;;;2.63;95.33;102712.25;5031469;28;20283;-79
2023/01/23 09:47:19;;;;;;;18.20;15.77;;;;;;;2.61;95.46;102699.28;5035260;28;20203;-81
2023/01/23 09:49:54;;;;;;;19.27;15.27;;;;;;;2.64;95.02;102698.56;5034422;28;20215;-78
2023/01/23 09:52:24;;;;;;;21.70;15.87;;;;;;;2.66;95.33;102705.56;5034940;28;20282;-80
2023/01/23 09:54:57;;;;;;;23.00;16.20;;;;;;;2.64;95.51;102708.88;5035987;28;20247;-80
2023/01/23 09:57:28;;;;;;;18.20;16.17;;;;;;;2.66;95.42;102708.13;5034673;28;20202;-80
2023/01/23 10:00:00;;;;;;;22.00;16.47;;;;;;;2.70;95.83;102712.66;5034523;28;20194;-79
2023/01/23 10:02:27;;;;;;;22.23;17.60;;;;;;;2.69;95.33;102710.84;5034254;28;20199;-79
2023/01/23 10:04:57;;;;;;;22.67;15.73;;;;;;;2.67;95.80;102716.75;5037698;28;20720;-78
2023/01/23 10:07:45;;;;;;;21.00;16.00;;;;;;;2.63;95.66;102714.84;5032937;28;20201;-79
2023/01/23 10:10:44;;;;;;;19.17;14.33;;;;;;;2.67;95.94;102702.16;5032895;28;20256;-81
2023/01/23 10:13:15;;;;;;;19.03;15.00;;;;;;;2.68;95.48;102703.94;5035611;28;20225;-81
2023/01/23 10:16:02;;;;;;;19.07;14.30;;;;;;;2.75;95.21;102710.28;5037851;28;20222;-80
2023/01/23 10:18:35;;;;;;;19.10;14.67;;;;;;;2.76;94.89;102718.09;5039349;28;20203;-82
2023/01/23 10:21:12;;;;;;;20.93;15.00;;;;;;;2.76;94.31;102731.00;5038605;28;20198;-80
2023/01/23 10:23:50;;;;;;;19.70;15.30;;;;;;;2.76;94.18;102735.28;5036737;28;20226;-80
2023/01/23 10:26:21;;;;;;;19.27;14.23;;;;;;;2.72;94.37;102730.78;5040099;28;20228;-79
2023/01/23 10:28:48;;;;;;;18.93;14.67;;;;;;;2.73;94.66;102736.00;5037275;28;20206;-79
2023/01/23 10:31:26;;;;;;;22.27;14.93;;;;;;;2.76;94.99;102725.84;5040390;28;20218;-79
2023/01/23 10:33:58;;;;;;;20.07;14.93;;;;;;;2.76;94.72;102723.25;5037911;28;20247;-80
2023/01/23 10:36:31;;;;;;;21.87;14.77;;;;;;;2.73;94.22;102722.22;5040067;28;20272;-79
2023/01/23 10:39:03;;;;;;;25.23;14.93;;;;;;;2.71;95.27;102713.53;5040936;28;20256;-79
2023/01/23 10:41:29;;;;;;;20.57;14.83;;;;;;;2.70;95.49;102699.75;5037389;28;20190;-77
2023/01/23 10:43:56;;;;;;;24.17;14.63;;;;;;;2.67;95.36;102698.69;5038521;28;20289;-80
2023/01/23 10:46:28;;;;;;;19.10;14.97;;;;;;;2.67;95.87;102684.09;5040116;28;20263;-79
2023/01/23 10:48:55;;;;;;;22.87;16.43;;;;;;;2.69;95.72;102686.78;5040406;28;20225;-79
2023/01/23 10:51:30;;;;;;;22.13;15.53;;;;;;;2.73;95.48;102676.69;5041264;28;20279;-79
2023/01/23 10:54:01;;;;;;;25.10;15.07;;;;;;;2.76;95.59;102681.13;5036210;28;20933;-78
2023/01/23 10:56:28;;;;;;;26.57;16.53;;;;;;;2.76;95.51;102689.72;5035205;28;20198;-81
2023/01/23 10:58:56;;;;;;;21.90;15.30;;;;;;;2.77;95.16;102686.38;5039176;28;20203;-78
2023/01/23 11:01:26;;;;;;;24.47;15.40;;;;;;;2.76;95.27;102687.16;5036335;28;20771;-79
2023/01/23 11:03:52;;;;;;;23.13;15.30;;;;;;;2.80;95.48;102687.31;5037605;28;20222;-79
2023/01/23 11:06:24;;;;;;;21.70;14.07;;;;;;;2.82;95.41;102685.69;5036983;28;20207;-82
2023/01/23 11:08:56;;;;;;;20.90;15.57;;;;;;;2.82;95.23;102696.03;5038593;28;20641;-80
2023/01/23 11:11:25;;;;;;;22.37;15.73;;;;;;;2.76;95.34;102692.31;5037084;28;20226;-79
2023/01/23 11:14:05;;;;;;;18.87;14.63;;;;;;;2.79;95.43;102686.41;5039420;28;20222;-78
2023/01/23 11:16:31;;;;;;;24.90;16.03;;;;;;;2.82;95.30;102680.53;5037196;28;20203;-79
2023/01/23 11:19:11;;;;;;;21.73;15.73;;;;;;;2.86;95.06;102679.88;5037705;28;20268;-79
2023/01/23 11:21:50;;;;;;;23.03;15.93;;;;;;;2.84;94.86;102684.09;5034316;28;20700;-78
2023/01/23 11:24:20;;;;;;;30.07;17.10;;;;;;;2.84;95.09;102681.50;5044015;28;20226;-81
2023/01/23 11:26:47;;;;;;;21.03;15.77;;;;;;;2.85;95.28;102673.81;5084414;22;21008;-81
2023/01/23 11:29:21;;;;;;;21.13;14.00;;;;;;;2.85;95.00;102675.53;5021153;28;20227;-82